Flight Track Log - Related Links

Times and Time Zones

All times are in EDT time to prevent confusion due to time zone crossing. See the SKW6528 flight status page for this flight to view local times or setup timezone preferences in your user account.

Time Position Orientation Groundspeed Altitude Reporting Facility
EDT Latitude Longitude Course Direction KTS MPH feet Rate Location/Type
Tue 12:37:20 PM 39.9167 -104.6500 90° East 216 249 7,500  Level Denver TRACON
Tue 12:38:20 PM 39.8833 -104.5667 118° Southeast 264 304 9,000 1,446 Climbing Denver TRACON
Tue 12:39:00 PM 39.7823 -104.1515 101° East  Level FlightAware Approximate
Tue 12:39:12 PM 39.8525 -104.4897 118° Southeast 288 331 10,200  Level Denver Center
Tue 12:40:00 PM 39.7667 -103.9791 90° East  Level FlightAware Approximate
Tue 12:40:15 PM 39.8108 -104.3761 115° Southeast 328 377 12,400  Level Denver Center
Tue 12:41:00 PM 39.7482 -103.8096 108° East  Level FlightAware Approximate
Tue 12:41:17 PM 39.8003 -104.2531 96° East 342 394 14,400  Level Denver Center
Tue 12:42:00 PM 39.7333 -103.6384 90° East  Level FlightAware Approximate
Tue 12:42:19 PM 39.7847 -104.1161 98° East 358 412 16,400  Level Denver Center
Tue 12:43:21 PM 39.7703 -103.9822 98° East 373 429 17,800 1,258 Climbing Denver Center
Tue 12:44:23 PM 39.7522 -103.8303 99° East 394 453 19,000 1,113 Climbing Denver Center
Tue 12:45:25 PM 39.7383 -103.7011 98° East 395 455 20,100 1,403 Climbing Denver Center
Tue 12:46:27 PM 39.7247 -103.5261 96° East 411 473 21,900 1,226 Climbing Denver Center
Tue 12:48:31 PM 39.6992 -103.2139 96° East 434 499 23,900 903 Climbing Denver Center
Tue 12:49:33 PM 39.6861 -103.0497 96° East 448 516 24,700 823 Climbing Denver Center
Tue 12:50:35 PM 39.6717 -102.8814 96° East 462 532 25,600 968 Climbing Denver Center
Tue 12:51:37 PM 39.6553 -102.6928 96° East 465 535 26,700 677 Climbing Denver Center
Tue 12:52:39 PM 39.6414 -102.5294 96° East 473 544 27,000 145 Climbing Denver Center
Tue 12:53:41 PM 39.6258 -102.3625 97° East 484 557 27,000  Level Denver Center
Tue 12:54:43 PM 39.6078 -102.1683 97° East 487 560 27,000  Level Denver Center
Tue 12:55:46 PM 39.5939 -102.0028 96° East 484 557 27,000  Level Denver Center
Tue 12:56:48 PM 39.5783 -101.8092 96° East 484 557 27,000  Level Denver Center
Tue 12:57:50 PM 39.5658 -101.6478 96° East 476 548 27,000  Level Denver Center
Tue 12:58:52 PM 39.5492 -101.4581 96° East 476 548 27,000 290 Level Denver Center
Tue 12:59:54 PM 39.5292 -101.2953 99° East 479 551 27,600 629 Climbing Denver Center
Tue 01:00:56 PM 39.5008 -101.1061 101° East 481 554 28,300 581 Climbing Denver Center
Tue 01:01:58 PM 39.4758 -100.9381 101° East 494 568 28,800 484 Climbing Denver Center
Tue 01:03:00 PM 39.4467 -100.7422 101° East 498 573 29,300 532 Climbing Denver Center
Tue 01:04:02 PM 39.4219 -100.5728 101° East 502 578 29,900 677 Climbing Denver Center
Tue 01:05:04 PM 39.3914 -100.3767 101° East 501 577 30,700 726 Climbing Denver Center
Tue 01:06:06 PM 39.3658 -100.2100 101° East 498 573 31,400 871 Climbing Denver Center
Tue 01:07:08 PM 39.3361 -100.0175 101° East 492 566 32,500 706 Climbing Denver Center
Tue 01:08:22 PM 39.3106 -99.8581 102° East 479 551 33,000 219 Climbing Denver Center
Tue 01:09:25 PM 39.2764 -99.6436 102° East 479 551 33,000  Level Denver Center
Tue 01:10:27 PM 39.2461 -99.4569 102° East 476 548 33,000  Level Denver Center
Tue 01:11:29 PM 39.2197 -99.2972 102° East 477 549 33,000  Level Denver Center
Tue 01:12:31 PM 39.1883 -99.1100 102° East 479 551 33,000  Level Denver Center
Tue 01:13:33 PM 39.1600 -98.9361 102° East 481 554 33,000  Level Denver Center
Tue 01:14:35 PM 39.1322 -98.7694 102° East 478 550 33,000  Level Denver Center
Tue 01:15:37 PM 39.1036 -98.5989 102° East 485 558 33,000  Level Denver Center
Tue 01:15:55 PM 39.0956 -98.5517 102° East 485 558 33,000  Level Kansas City Center
Tue 01:16:55 PM 39.0669 -98.3836 102° East 481 554 33,000  Level Kansas City Center
Tue 01:17:57 PM 39.0372 -98.2142 103° East 484 557 33,000  Level Kansas City Center
Tue 01:18:58 PM 39.0075 -98.0458 103° East 482 555 33,000  Level Kansas City Center
Tue 01:20:02 PM 38.9633 -97.8864 110° East 479 551 33,000  Level Kansas City Center
Tue 01:21:02 PM 38.9106 -97.7267 113° Southeast 473 544 33,000  Level Kansas City Center
Tue 01:22:03 PM 38.8544 -97.5539 113° Southeast 470 541 33,000  Level Kansas City Center
Tue 01:23:04 PM 38.8094 -97.4197 113° Southeast 471 542 33,000  Level Kansas City Center
Tue 01:24:08 PM 38.7583 -97.2653 113° Southeast 469 540 33,000  Level Kansas City Center
Tue 01:25:09 PM 38.6964 -97.0797 113° Southeast 471 542 33,000  Level Kansas City Center
Tue 01:26:12 PM 38.6444 -96.9269 113° Southeast 468 539 33,000  Level Kansas City Center
Tue 01:27:13 PM 38.5911 -96.7708 114° Southeast 471 542 33,000  Level Kansas City Center
Tue 01:28:14 PM 38.5422 -96.6239 113° Southeast 471 542 33,000  Level Kansas City Center
Tue 01:29:15 PM 38.4833 -96.4536 114° Southeast 470 541 33,000  Level Kansas City Center
Tue 01:30:16 PM 38.4339 -96.3097 114° Southeast 464 534 33,000  Level Kansas City Center
Tue 01:31:17 PM 38.3764 -96.1414 113° Southeast 463 533 33,000  Level Kansas City Center
Tue 01:32:21 PM 38.3264 -95.9994 114° Southeast 461 531 33,000  Level Kansas City Center
Tue 01:33:22 PM 38.2683 -95.8331 114° Southeast 460 529 33,000  Level Kansas City Center
Tue 01:34:24 PM 38.2192 -95.6933 114° Southeast 455 524 33,000 -384 Level Kansas City Center
Tue 01:35:27 PM 38.1694 -95.5514 114° Southeast 460 529 32,200 -934 Descending Kansas City Center
Tue 01:36:26 PM 38.1106 -95.3869 114° Southeast 459 528 31,100 -927 Descending Kansas City Center
Tue 01:37:30 PM 38.0611 -95.2469 114° Southeast 456 525 30,300 -1,306 Descending Kansas City Center
Tue 01:38:30 PM 38.0042 -95.0864 114° Southeast 450 518 28,400 -1,869 Descending Kansas City Center
Tue 01:39:32 PM 37.9553 -94.9525 115° Southeast 443 510 26,500 -2,016 Descending Kansas City Center
Tue 01:40:35 PM 37.8997 -94.7986 115° Southeast 434 499 24,200 -1,968 Descending Kansas City Center
Tue 01:41:37 PM 37.8544 -94.6717 114° Southeast 423 487 22,400 -1,756 Descending Kansas City Center
Tue 01:42:38 PM 37.8044 -94.5356 115° Southeast 396 456 20,600 -1,934 Descending Kansas City Center
Tue 01:43:38 PM 37.7583 -94.4103 115° Southeast 380 437 18,500 -1,935 Descending Kansas City Center
Tue 01:44:42 PM 37.7142 -94.2928 115° Southeast 372 428 16,600 -1,200 Descending Kansas City Center
Tue 01:45:43 PM 37.6700 -94.1911 119° Southeast 340 391 16,000 -878 Descending Kansas City Center
Tue 01:46:45 PM 37.6269 -94.1178 127° Southeast 291 335 14,800 -1,317 Descending Kansas City Center
Tue 01:47:46 PM 37.5742 -94.0331 128° Southeast 285 328 13,300 -1,366 Descending Kansas City Center
Tue 01:48:48 PM 37.5244 -93.9583 130° Southeast 280 322 12,000 -1,317 Descending Kansas City Center
Tue 01:49:49 PM 37.4678 -93.8994 140° Southeast 270 311 10,600 -1,619 Descending Kansas City Center
Tue 01:50:54 PM 37.4083 -93.8433 143° Southeast 265 305 8,600 -2,048 Descending Kansas City Center
Tue 01:51:55 PM 37.3344 -93.7739 143° Southeast 271 312 6,300 -1,934 Descending Kansas City Center
Tue 01:52:55 PM 37.2744 -93.7181 143° Southeast 271 312 4,700 -1,140 Descending Kansas City Center
Tue 01:53:56 PM 37.2167 -93.6733 148° Southeast 262 302 4,000 -344 Descending Kansas City Center
Tue 01:54:57 PM 37.1694 -93.6353 147° Southeast 241 277 4,000 -145 Level Kansas City Center
Tue 01:56:00 PM 37.1589 -93.5933 108° East 217 250 3,700 -286 Descending Kansas City Center
Tue 01:57:00 PM 37.2368 -93.4875 47° Northeast  Level FlightAware Approximate

Login

Don't have an account? Register now (free) for customized features, flight alerts, and more!